createdAt,value
2018-12-23T00:01:06.331Z,21.4
2018-12-23T00:02:18.503Z,20.6
2018-12-23T00:03:30.623Z,15.2
2018-12-23T00:04:42.987Z,13.5
2018-12-23T00:05:55.008Z,13
2018-12-23T00:07:07.287Z,22.2
2018-12-23T00:08:19.429Z,14.7
2018-12-23T00:09:31.601Z,14.4
2018-12-23T00:10:43.790Z,15.8
2018-12-23T00:11:56.092Z,15.4
2018-12-23T00:13:08.268Z,20.2
2018-12-23T00:14:20.556Z,18
2018-12-23T00:15:32.597Z,19.1
2018-12-23T00:16:44.762Z,16.3
2018-12-23T00:17:57.025Z,18.1
2018-12-23T00:19:09.259Z,18
2018-12-23T00:20:21.456Z,21
2018-12-23T00:21:33.602Z,19.9
2018-12-23T00:22:45.716Z,25.4
2018-12-23T00:23:58.087Z,19.5
2018-12-23T00:25:10.210Z,19.7
2018-12-23T00:26:22.371Z,26.2
2018-12-23T00:27:34.570Z,22.1
2018-12-23T00:28:46.779Z,22.8
2018-12-23T00:29:58.950Z,21.6
2018-12-23T00:31:11.083Z,18.8
2018-12-23T00:32:23.344Z,20.6
2018-12-23T00:33:35.561Z,22.8
2018-12-23T00:34:47.727Z,18.4
2018-12-23T00:35:59.943Z,19
2018-12-23T00:37:12.211Z,21.2
2018-12-23T00:38:24.240Z,18.9
2018-12-23T00:39:36.435Z,20.2
2018-12-23T00:40:48.725Z,19.8
2018-12-23T00:42:00.895Z,24.7
2018-12-23T00:43:13.089Z,21.7
2018-12-23T00:44:25.999Z,16.5
2018-12-23T00:45:37.398Z,22.6
2018-12-23T00:46:49.610Z,21.5
2018-12-23T00:48:01.888Z,21.1
2018-12-23T00:49:14.053Z,17.5
2018-12-23T00:50:26.257Z,23.8
2018-12-23T00:51:41.331Z,18.5
2018-12-23T00:52:50.647Z,21.1
2018-12-23T00:54:02.766Z,16.1
2018-12-23T00:55:15.028Z,17.5
2018-12-23T00:56:27.209Z,23.1
2018-12-23T00:57:39.458Z,21.5
2018-12-23T00:58:51.603Z,20.5
2018-12-23T01:00:03.796Z,20.4
2018-12-23T01:01:16.106Z,19.2
2018-12-23T01:02:28.187Z,23.1
2018-12-23T01:03:40.314Z,21.2
2018-12-23T01:04:52.507Z,16.4
2018-12-23T01:06:04.776Z,21.2
2018-12-23T01:07:16.986Z,25
2018-12-23T01:08:29.081Z,21.7
2018-12-23T01:09:41.355Z,20.5
2018-12-23T01:10:53.551Z,18.1
2018-12-23T01:12:05.674Z,19.4
2018-12-23T01:13:17.966Z,20.3
2018-12-23T01:14:30.229Z,18.5
2018-12-23T01:15:42.510Z,26.7
2018-12-23T01:16:54.458Z,19.9
2018-12-23T01:18:06.720Z,20.7
2018-12-23T01:19:18.953Z,20.5
2018-12-23T01:20:31.109Z,23.7
2018-12-23T01:21:43.426Z,29.2
2018-12-23T01:22:55.422Z,19.9
2018-12-23T01:24:07.625Z,21.7
2018-12-23T01:25:19.906Z,23.5
2018-12-23T01:26:32.079Z,16.6
2018-12-23T01:27:44.279Z,18.1
2018-12-23T01:28:56.467Z,23.1
2018-12-23T01:30:08.669Z,22
2018-12-23T01:31:20.884Z,18.7
2018-12-23T01:32:33.080Z,22.2
2018-12-23T01:33:45.230Z,20.2
2018-12-23T01:34:57.382Z,19.7
2018-12-23T01:36:09.647Z,23.1
2018-12-23T01:37:21.842Z,20.8
2018-12-23T01:38:34.042Z,22.2
2018-12-23T01:39:46.248Z,20.3
2018-12-23T01:40:58.430Z,23.7
2018-12-23T01:42:10.576Z,23.1
2018-12-23T01:43:22.864Z,25.4
2018-12-23T01:44:35.009Z,24
2018-12-23T01:45:47.202Z,24.7
2018-12-23T01:46:59.399Z,22.1
2018-12-23T01:48:11.624Z,20.1
2018-12-23T01:49:23.889Z,20.9
2018-12-23T01:50:35.917Z,26.2
2018-12-23T01:51:48.167Z,23
2018-12-23T01:53:00.391Z,20.9
2018-12-23T01:54:12.508Z,23.9
2018-12-23T01:55:24.707Z,22.2
2018-12-23T01:56:36.921Z,22.8
2018-12-23T01:57:49.273Z,23.8
2018-12-23T01:59:01.371Z,28.8
2018-12-23T02:00:13.562Z,18.3
2018-12-23T02:01:25.776Z,19.4
2018-12-23T02:02:37.993Z,21.1
2018-12-23T02:03:50.141Z,23
2018-12-23T02:05:02.461Z,22.9
2018-12-23T02:06:14.459Z,20
2018-12-23T02:07:26.812Z,25.9
2018-12-23T02:08:38.843Z,22.3
2018-12-23T02:09:51.124Z,22.1
2018-12-23T02:11:03.308Z,28.3
2018-12-23T02:12:15.621Z,21.3
2018-12-23T02:13:27.697Z,24.3
2018-12-23T02:14:40.333Z,24.8
2018-12-23T02:15:52.147Z,24.7
2018-12-23T02:17:04.214Z,23.4
2018-12-23T02:18:16.410Z,20.8
2018-12-23T02:19:28.759Z,23.3
2018-12-23T02:20:40.898Z,24.8
2018-12-23T02:21:53.071Z,16.4
2018-12-23T02:23:05.192Z,28.6
2018-12-23T02:24:17.513Z,20.1
2018-12-23T02:25:29.649Z,23.1
2018-12-23T02:26:41.848Z,22.4
2018-12-23T02:27:53.972Z,23.9
2018-12-23T02:29:06.166Z,23.7
2018-12-23T02:30:18.443Z,24.6
2018-12-23T02:31:30.662Z,28
2018-12-23T02:32:42.824Z,27
2018-12-23T02:33:54.949Z,21.2
2018-12-23T02:35:07.155Z,27.4
2018-12-23T02:36:19.433Z,22.2
2018-12-23T02:37:31.748Z,24
2018-12-23T02:38:43.737Z,19
2018-12-23T02:39:55.923Z,24.9
2018-12-23T02:41:08.297Z,24.6
2018-12-23T02:42:20.469Z,18.7
2018-12-23T02:43:32.633Z,19.3
2018-12-23T02:44:44.712Z,17.7
2018-12-23T02:45:56.973Z,21.7
2018-12-23T02:47:09.161Z,25.5
2018-12-23T02:48:21.377Z,23.6
2018-12-23T02:49:33.565Z,23.5
2018-12-23T02:50:45.695Z,30.5
2018-12-23T02:51:57.950Z,23.2
2018-12-23T02:53:10.068Z,28.2
2018-12-23T02:54:22.375Z,26.5
2018-12-23T02:55:34.536Z,22.5
2018-12-23T02:56:46.749Z,21.2
2018-12-23T02:57:58.924Z,19.9
2018-12-23T02:59:11.153Z,27.6
2018-12-23T03:00:23.362Z,23.9
2018-12-23T03:01:36.012Z,26
2018-12-23T03:02:47.717Z,24.5
2018-12-23T03:03:59.831Z,22.1
2018-12-23T03:05:12.033Z,24
2018-12-23T03:06:24.307Z,24.1
2018-12-23T03:07:36.537Z,23
2018-12-23T03:08:48.615Z,22
2018-12-23T03:10:00.894Z,26.7
2018-12-23T03:11:13.021Z,30.2
2018-12-23T03:12:25.191Z,25.1
2018-12-23T03:13:37.611Z,19.7
2018-12-23T03:14:49.591Z,27.8
2018-12-23T03:16:01.848Z,31.4
2018-12-23T03:17:14.134Z,24.2
2018-12-23T03:18:26.261Z,23.8
2018-12-23T03:19:38.436Z,32.6
2018-12-23T03:20:50.587Z,30.3
2018-12-23T03:22:02.940Z,28.1
2018-12-23T03:23:14.949Z,24
2018-12-23T03:24:27.222Z,25.2
2018-12-23T03:25:39.526Z,21.3
2018-12-23T03:26:51.607Z,30.4
2018-12-23T03:28:03.741Z,22.6
2018-12-23T03:29:15.933Z,21.5
2018-12-23T03:30:28.164Z,24.8
2018-12-23T03:31:40.331Z,24.9
2018-12-23T03:32:52.520Z,22.4
2018-12-23T03:34:04.845Z,26.3
2018-12-23T03:35:16.901Z,28.6
2018-12-23T03:36:29.178Z,34.3
2018-12-23T03:37:41.458Z,27.4
2018-12-23T03:38:53.570Z,26.4
2018-12-23T03:40:05.767Z,31.2
2018-12-23T03:41:17.973Z,20
2018-12-23T03:42:30.090Z,21.1
2018-12-23T03:43:42.342Z,21.9
2018-12-23T03:44:54.539Z,27
2018-12-23T03:46:06.737Z,23.5
2018-12-23T03:47:18.956Z,17.9
2018-12-23T03:48:31.130Z,25.7
2018-12-23T03:49:43.322Z,25.6
2018-12-23T03:50:55.532Z,22.3
2018-12-23T03:52:07.643Z,21.6
2018-12-23T03:53:19.930Z,25
2018-12-23T03:54:32.166Z,20
2018-12-23T03:55:44.297Z,25.2
2018-12-23T03:56:56.422Z,26.2
2018-12-23T03:58:08.613Z,25.1
2018-12-23T03:59:20.867Z,22.1
2018-12-23T04:00:33.097Z,27.3
2018-12-23T04:01:45.199Z,24.2
2018-12-23T04:02:57.398Z,25.1
2018-12-23T04:04:09.593Z,28.9
2018-12-23T04:05:21.876Z,22.6
2018-12-23T04:06:34.060Z,27.9
2018-12-23T04:07:46.317Z,24.7
2018-12-23T04:08:58.375Z,21.9
2018-12-23T04:10:10.645Z,28.2
2018-12-23T04:11:22.854Z,26
2018-12-23T04:12:35.035Z,23.2
2018-12-23T04:13:47.361Z,23.9
2018-12-23T04:14:59.488Z,30.1
2018-12-23T04:16:11.555Z,24.8
2018-12-23T04:17:23.908Z,17
2018-12-23T04:18:36.016Z,21.8
2018-12-23T04:19:48.142Z,23.2
2018-12-23T04:21:00.526Z,23.9
2018-12-23T04:22:12.517Z,25.2
2018-12-23T04:23:24.793Z,23.2
2018-12-23T04:24:36.922Z,28
2018-12-23T04:25:49.177Z,27
2018-12-23T04:27:01.406Z,24.9
2018-12-23T04:28:13.591Z,21.8
2018-12-23T04:29:25.762Z,24.4
2018-12-23T04:30:37.963Z,24.6
2018-12-23T04:31:50.164Z,28.1
2018-12-23T04:33:02.410Z,22.8
2018-12-23T04:34:14.583Z,23.6
2018-12-23T04:35:26.752Z,25.3
2018-12-23T04:36:38.937Z,27
2018-12-23T04:37:51.220Z,24.9
2018-12-23T04:39:03.331Z,23.3
2018-12-23T04:40:15.454Z,28
2018-12-23T04:41:27.644Z,19.9
2018-12-23T04:42:39.949Z,25.6
2018-12-23T04:43:52.114Z,26.1
2018-12-23T04:45:04.280Z,22.7
2018-12-23T04:46:16.528Z,20
2018-12-23T04:47:28.704Z,23.2
2018-12-23T04:48:40.901Z,27.6
2018-12-23T04:49:53.103Z,24.2
2018-12-23T04:51:05.290Z,20.1
2018-12-23T04:52:17.501Z,21.8
2018-12-23T04:53:29.686Z,25.8
2018-12-23T04:54:41.875Z,24.9
2018-12-23T04:55:54.074Z,22.7
2018-12-23T04:57:06.336Z,25.5
2018-12-23T04:58:18.495Z,24
2018-12-23T04:59:30.644Z,25.1
2018-12-23T05:00:42.879Z,22.6
2018-12-23T05:01:55.154Z,24.2
2018-12-23T05:03:07.159Z,17
2018-12-23T05:04:19.381Z,24
2018-12-23T05:05:31.555Z,26.6
2018-12-23T05:06:43.762Z,20.1
2018-12-23T05:07:56.024Z,22
2018-12-23T05:09:08.238Z,21.8
2018-12-23T05:10:20.401Z,19.7
2018-12-23T05:11:32.537Z,23.3
2018-12-23T05:12:44.888Z,18.2
2018-12-23T05:13:57.010Z,19.7
2018-12-23T05:15:09.200Z,24.1
2018-12-23T05:16:21.408Z,21
2018-12-23T05:17:33.574Z,20.2
2018-12-23T05:18:45.715Z,17.8
2018-12-23T05:19:57.897Z,18.6
2018-12-23T05:21:10.174Z,22.3
2018-12-23T05:22:22.399Z,19.3
2018-12-23T05:23:34.565Z,22.7
2018-12-23T05:24:46.755Z,17.4
2018-12-23T05:25:58.875Z,19.6
2018-12-23T05:27:11.177Z,15.8
2018-12-23T05:28:23.277Z,22
2018-12-23T05:29:35.469Z,15.3
2018-12-23T05:30:47.733Z,19.7
2018-12-23T05:31:59.935Z,23.5
2018-12-23T05:33:12.056Z,25.8
2018-12-23T05:34:24.352Z,17.7
2018-12-23T05:35:36.521Z,20.5
2018-12-23T05:36:48.634Z,23.1
2018-12-23T05:38:00.997Z,19.1
2018-12-23T05:39:13.110Z,20.4
2018-12-23T05:40:25.933Z,19.1
2018-12-23T05:41:37.435Z,20.5
2018-12-23T05:42:49.686Z,20.7
2018-12-23T05:44:01.945Z,16.8
2018-12-23T05:45:14.025Z,18.9
2018-12-23T05:46:26.199Z,15.9
2018-12-23T05:47:38.487Z,16
2018-12-23T05:48:50.685Z,19.3
2018-12-23T05:50:02.950Z,19.5
2018-12-23T05:51:15.071Z,19.9
2018-12-23T05:52:27.258Z,18.4
2018-12-23T05:53:39.444Z,21.5
2018-12-23T05:54:51.575Z,19.6
2018-12-23T05:56:03.763Z,22.1
2018-12-23T05:57:15.967Z,20.1
2018-12-23T05:58:28.271Z,17.9
2018-12-23T05:59:40.343Z,14.7
2018-12-23T06:00:54.256Z,20
2018-12-23T06:02:04.814Z,20
2018-12-23T06:03:16.942Z,18.6
2018-12-23T06:04:29.201Z,21.1
2018-12-23T06:05:41.402Z,20.2
2018-12-23T06:06:53.528Z,18.3
2018-12-23T06:08:05.783Z,18.9
2018-12-23T06:09:18.009Z,19.4
2018-12-23T06:10:30.269Z,17.5
2018-12-23T06:11:42.396Z,21.1
2018-12-23T06:12:54.581Z,15.6
2018-12-23T06:14:06.880Z,14.5
2018-12-23T06:15:18.959Z,17.3
2018-12-23T06:16:31.161Z,18.1
2018-12-23T06:17:43.390Z,16.8
2018-12-23T06:18:55.474Z,16.5
2018-12-23T06:20:07.787Z,15.6
2018-12-23T06:21:19.870Z,17.3
2018-12-23T06:22:32.061Z,20.3
2018-12-23T06:23:44.327Z,16.5
2018-12-23T06:24:56.534Z,19.8
2018-12-23T06:26:08.817Z,13.7
2018-12-23T06:27:20.850Z,16.3
2018-12-23T06:28:33.148Z,18.6
2018-12-23T06:29:45.238Z,17.8
2018-12-23T06:30:57.500Z,17.5
2018-12-23T06:32:09.622Z,20.7
2018-12-23T06:33:21.894Z,17.1
2018-12-23T06:34:34.011Z,18.2
2018-12-23T06:35:46.372Z,15.5
2018-12-23T06:36:58.411Z,12.5
2018-12-23T06:38:10.791Z,18.9
2018-12-23T06:39:22.885Z,14.6
2018-12-23T06:40:35.092Z,13.8
2018-12-23T06:41:47.203Z,13.1
2018-12-23T06:42:59.478Z,17.6
2018-12-23T06:44:11.655Z,17.5
2018-12-23T06:45:23.845Z,17
2018-12-23T06:46:36.057Z,14.5
2018-12-23T06:47:48.172Z,18.5
2018-12-23T06:49:00.359Z,17.2
2018-12-23T06:50:12.728Z,18.7
2018-12-23T06:51:24.747Z,15.4
2018-12-23T06:52:37.023Z,16.5
2018-12-23T06:53:49.146Z,16.6
2018-12-23T06:55:01.429Z,16.8
2018-12-23T06:56:13.612Z,17.3
2018-12-23T06:57:25.816Z,19.5
2018-12-23T06:58:38.012Z,14.2
2018-12-23T06:59:50.197Z,16.1
2018-12-23T07:01:02.433Z,16.3
2018-12-23T07:02:14.607Z,19.1
2018-12-23T07:03:26.788Z,18.6
2018-12-23T07:04:38.985Z,19
2018-12-23T07:05:51.097Z,18.5
2018-12-23T07:07:03.297Z,15
2018-12-23T07:08:15.575Z,17.6
2018-12-23T07:09:29.046Z,17.5
2018-12-23T07:10:39.915Z,17.5
2018-12-23T07:11:52.150Z,14.9
2018-12-23T07:13:04.344Z,16.4
2018-12-23T07:14:16.644Z,13.6
2018-12-23T07:15:28.844Z,18.2
2018-12-23T07:16:40.945Z,16.5
2018-12-23T07:17:53.127Z,11.9
2018-12-23T07:19:05.249Z,19.3
2018-12-23T07:20:17.474Z,16
2018-12-23T07:21:29.668Z,10
2018-12-23T07:22:41.906Z,16.3
2018-12-23T07:23:54.154Z,18.8
2018-12-23T07:25:06.374Z,13
2018-12-23T07:26:18.587Z,13.9
2018-12-23T07:27:30.714Z,13.9
2018-12-23T07:28:42.920Z,16.7
2018-12-23T07:29:55.092Z,12.6
2018-12-23T07:31:07.280Z,13
2018-12-23T07:32:19.497Z,16.7
2018-12-23T07:33:31.676Z,15.6
2018-12-23T07:34:43.816Z,16.5
2018-12-23T07:35:56.158Z,20.4
2018-12-23T07:37:08.207Z,12.8
2018-12-23T07:38:20.572Z,10.4
2018-12-23T07:39:32.742Z,13.3
2018-12-23T07:40:44.846Z,17.1
2018-12-23T07:41:56.975Z,14.4
2018-12-23T07:43:09.232Z,13.3
2018-12-23T07:44:21.360Z,13.4
2018-12-23T07:45:33.631Z,13.3
2018-12-23T07:46:45.813Z,16.1
2018-12-23T07:47:57.942Z,11.5
2018-12-23T07:49:10.314Z,15.8
2018-12-23T07:50:22.501Z,14.4
2018-12-23T07:51:34.624Z,17.6
2018-12-23T07:52:46.843Z,13
2018-12-23T07:53:58.992Z,10.7
2018-12-23T07:55:11.220Z,17.4
2018-12-23T07:56:23.320Z,11.9
2018-12-23T07:57:35.580Z,15.1
2018-12-23T07:58:47.791Z,14.7
2018-12-23T08:00:00.000Z,12.1
2018-12-23T08:01:12.261Z,15.8
2018-12-23T08:02:24.461Z,14
2018-12-23T08:03:36.556Z,13.3
2018-12-23T08:04:48.684Z,10.6
2018-12-23T08:06:00.963Z,13.1
2018-12-23T08:07:13.140Z,11.7
2018-12-23T08:08:25.268Z,14.4
2018-12-23T08:09:37.531Z,12.6
2018-12-23T08:10:49.739Z,12.6
2018-12-23T08:12:01.912Z,14
2018-12-23T08:13:14.159Z,9.5
2018-12-23T08:14:26.408Z,12.9
2018-12-23T08:15:38.508Z,13.3
2018-12-23T08:16:50.741Z,12.6
2018-12-23T08:18:02.835Z,14.3
2018-12-23T08:19:15.103Z,10.7
2018-12-23T08:20:27.400Z,13
2018-12-23T08:21:39.499Z,13.6
2018-12-23T08:22:51.708Z,13.3
2018-12-23T08:24:03.883Z,11.5
2018-12-23T08:25:16.111Z,9
2018-12-23T08:26:28.376Z,12.4
2018-12-23T08:27:40.481Z,11.4
2018-12-23T08:28:52.701Z,13.5
2018-12-23T08:30:04.857Z,13.7
2018-12-23T08:31:16.983Z,13.8
2018-12-23T08:32:29.262Z,13
2018-12-23T08:33:41.553Z,11
2018-12-23T08:34:53.643Z,11.8
2018-12-23T08:36:05.774Z,11.8
2018-12-23T08:37:17.959Z,12.8
2018-12-23T08:38:30.329Z,8
2018-12-23T08:39:42.447Z,14
2018-12-23T08:40:54.619Z,14.4
2018-12-23T08:42:06.738Z,9.2
2018-12-23T08:43:19.009Z,8.5
2018-12-23T08:44:31.238Z,14.4
2018-12-23T08:45:43.397Z,7
2018-12-23T08:46:55.527Z,9.5
2018-12-23T08:48:07.727Z,10.8
2018-12-23T08:49:19.992Z,14.6
2018-12-23T08:50:32.208Z,11.7
2018-12-23T08:51:44.384Z,11.2
2018-12-23T08:52:56.586Z,13.7
2018-12-23T08:54:08.778Z,7.7
2018-12-23T08:55:20.983Z,13.2
2018-12-23T08:56:36.823Z,12.4
2018-12-23T08:57:45.284Z,11
2018-12-23T08:58:57.577Z,10.3
2018-12-23T09:00:09.767Z,11.7
2018-12-23T09:01:21.968Z,8.7
2018-12-23T09:02:34.143Z,9.7
2018-12-23T09:03:46.386Z,7.6
2018-12-23T09:04:58.529Z,11.1
2018-12-23T09:06:10.653Z,9.2
2018-12-23T09:07:22.914Z,7.9
2018-12-23T09:08:35.125Z,8.4
2018-12-23T09:09:47.404Z,9.3
2018-12-23T09:10:59.507Z,9.7
2018-12-23T09:12:11.625Z,10.5
2018-12-23T09:13:23.917Z,11.3
2018-12-23T09:14:36.113Z,12.9
2018-12-23T09:15:48.216Z,10.5
2018-12-23T09:17:00.620Z,10.8
2018-12-23T09:18:12.622Z,11.1
2018-12-23T09:19:24.946Z,11.4
2018-12-23T09:20:37.106Z,9.4
2018-12-23T09:21:49.260Z,7.7
2018-12-23T09:23:01.609Z,8.3
2018-12-23T09:24:13.682Z,11.2
2018-12-23T09:25:25.844Z,10.8
2018-12-23T09:26:38.040Z,10.1
2018-12-23T09:27:54.043Z,11
2018-12-23T09:29:02.452Z,9.8
2018-12-23T09:30:14.651Z,8.2
2018-12-23T09:31:26.833Z,7.3
2018-12-23T09:32:39.024Z,8.6
2018-12-23T09:33:51.216Z,11.3
2018-12-23T09:35:03.341Z,9.7
2018-12-23T09:36:15.531Z,7.8
2018-12-23T09:37:27.799Z,9.5
2018-12-23T09:38:40.026Z,10.2
2018-12-23T09:39:52.146Z,8.4
2018-12-23T09:41:04.469Z,8.9
2018-12-23T09:42:16.621Z,8.4
2018-12-23T09:43:28.804Z,7.9
2018-12-23T09:44:40.983Z,9.1
2018-12-23T09:45:53.192Z,9.6
2018-12-23T09:47:05.360Z,6.4
2018-12-23T09:48:17.523Z,8.4
2018-12-23T09:49:29.755Z,9.8
2018-12-23T09:50:42.067Z,8.3
2018-12-23T09:51:54.143Z,12.4
2018-12-23T09:53:06.350Z,9.5
2018-12-23T09:54:18.647Z,9.8
2018-12-23T09:55:30.740Z,11.8
2018-12-23T09:56:42.930Z,9.2
2018-12-23T09:57:55.121Z,8.5
2018-12-23T09:59:07.245Z,8
2018-12-23T10:00:19.539Z,9.1
2018-12-23T10:01:31.635Z,9.2
2018-12-23T10:02:43.844Z,10
2018-12-23T10:03:56.390Z,8.8
2018-12-23T10:05:08.310Z,6.9
2018-12-23T10:06:20.534Z,6.6
2018-12-23T10:07:32.615Z,7.4
2018-12-23T10:08:44.891Z,9.4
2018-12-23T10:10:00.432Z,11.3
2018-12-23T10:11:09.197Z,7.9
2018-12-23T10:12:21.515Z,10.4
2018-12-23T10:13:33.581Z,7.4
2018-12-23T10:14:45.966Z,8.4
2018-12-23T10:15:58.065Z,7
2018-12-23T10:17:10.255Z,7.7
2018-12-23T10:18:22.362Z,9.2
2018-12-23T10:19:34.559Z,9.8
2018-12-23T10:20:46.860Z,6.7
2018-12-23T10:21:58.954Z,7.3
2018-12-23T10:23:11.244Z,7.6
2018-12-23T10:24:23.418Z,8.5
2018-12-23T10:25:35.545Z,7.5
2018-12-23T10:26:47.910Z,9.5
2018-12-23T10:28:00.110Z,6
2018-12-23T10:29:12.393Z,10.5
2018-12-23T10:30:24.416Z,9.8
2018-12-23T10:31:36.520Z,7.9
2018-12-23T10:32:48.796Z,8.8
2018-12-23T10:34:00.982Z,7.3
2018-12-23T10:35:13.098Z,12.4
2018-12-23T10:36:26.380Z,8.2
2018-12-23T10:37:37.562Z,10.5
2018-12-23T10:38:49.778Z,9.6
2018-12-23T10:40:01.877Z,7.1
2018-12-23T10:41:14.138Z,9.8
2018-12-23T10:42:26.332Z,9
2018-12-23T10:43:38.518Z,9.2
2018-12-23T10:44:50.651Z,10.7
2018-12-23T10:46:02.934Z,8
2018-12-23T10:47:15.199Z,6
2018-12-23T10:48:27.325Z,9.6
2018-12-23T10:49:39.426Z,7.8
2018-12-23T10:50:51.686Z,14
2018-12-23T10:52:03.805Z,7
2018-12-23T10:53:16.079Z,12.8
2018-12-23T10:54:28.295Z,6.7
2018-12-23T10:55:40.477Z,8.4
2018-12-23T10:56:52.595Z,9.3
2018-12-23T10:58:04.861Z,5.9
2018-12-23T10:59:16.968Z,11.9
2018-12-23T11:00:29.253Z,9.9
2018-12-23T11:01:41.373Z,16.9
2018-12-23T11:02:53.736Z,12.8
2018-12-23T11:04:05.874Z,12.3
2018-12-23T11:05:18.031Z,11.6
2018-12-23T11:06:30.138Z,10.7
2018-12-23T11:07:42.346Z,16.8
2018-12-23T11:08:54.605Z,13
2018-12-23T11:10:06.728Z,14.1
2018-12-23T11:11:18.928Z,16.8
2018-12-23T11:12:31.403Z,14.8
2018-12-23T11:13:43.376Z,13.7
2018-12-23T11:14:55.592Z,14.3
2018-12-23T11:16:07.762Z,13.3
2018-12-23T11:17:19.994Z,14.7
2018-12-23T11:18:32.143Z,15.6
2018-12-23T11:19:44.333Z,15.6
2018-12-23T11:20:57.162Z,12.5
2018-12-23T11:22:08.723Z,14.3
2018-12-23T11:23:21.022Z,14.1
2018-12-23T11:24:33.178Z,14.8
2018-12-23T11:25:45.307Z,14.2
2018-12-23T11:26:57.588Z,12.3
2018-12-23T11:28:09.690Z,12.8
2018-12-23T11:29:21.859Z,12
2018-12-23T11:30:35.357Z,14.8
2018-12-23T11:31:46.443Z,14.5
2018-12-23T11:32:58.401Z,9.3
2018-12-23T11:34:10.669Z,11.8
2018-12-23T11:35:22.946Z,10.3
2018-12-23T11:36:34.992Z,12.1
2018-12-23T11:37:47.291Z,15.2
2018-12-23T11:38:59.369Z,14.2
2018-12-23T11:40:11.637Z,12.2
2018-12-23T11:41:23.826Z,16
2018-12-23T11:42:36.016Z,16
2018-12-23T11:43:48.224Z,13.5
2018-12-23T11:45:00.410Z,14.5
2018-12-23T11:46:12.603Z,13.6
2018-12-23T11:47:24.797Z,14.7
2018-12-23T11:48:37.009Z,17.5
2018-12-23T11:49:49.114Z,10.7
2018-12-23T11:51:01.359Z,17.8
2018-12-23T11:52:13.579Z,18
2018-12-23T11:53:25.770Z,12.9
2018-12-23T11:54:41.268Z,21.7
2018-12-23T11:55:50.502Z,16.2
2018-12-23T11:57:02.301Z,10.7
2018-12-23T11:58:14.464Z,12.4
2018-12-23T11:59:26.727Z,16.5
2018-12-23T12:00:38.933Z,17.4
2018-12-23T12:01:51.431Z,16
2018-12-23T12:03:03.407Z,15.1
2018-12-23T12:04:15.433Z,13.4
2018-12-23T12:05:27.628Z,14.3
2018-12-23T12:06:39.943Z,10.3
2018-12-23T12:07:52.102Z,15.2
2018-12-23T12:09:04.333Z,17.7
2018-12-23T12:10:16.508Z,13.9
2018-12-23T12:11:28.672Z,12.9
2018-12-23T12:12:40.853Z,14.8
2018-12-23T12:13:52.985Z,10.7
2018-12-23T12:15:05.275Z,12.4
2018-12-23T12:16:17.539Z,14
2018-12-23T12:17:29.652Z,11.3
2018-12-23T12:18:41.842Z,12.8
2018-12-23T12:19:54.026Z,13
2018-12-23T12:21:06.227Z,10.9
2018-12-23T12:22:18.455Z,10
2018-12-23T12:23:30.706Z,10.3
2018-12-23T12:24:42.838Z,11.2
2018-12-23T12:25:54.995Z,8.3
2018-12-23T12:27:07.182Z,9.8
2018-12-23T12:28:19.413Z,9.3
2018-12-23T12:29:31.499Z,9.4
2018-12-23T12:30:43.769Z,11.8
2018-12-23T12:31:56.992Z,8.6
2018-12-23T12:33:08.194Z,8
2018-12-23T12:34:20.289Z,13
2018-12-23T12:35:32.595Z,12
2018-12-23T12:36:44.668Z,9.2
2018-12-23T12:37:57.449Z,9.1
2018-12-23T12:39:09.259Z,9.3
2018-12-23T12:40:21.334Z,13.3
2018-12-23T12:41:33.577Z,19.1
2018-12-23T12:42:45.705Z,12.7
2018-12-23T12:43:57.896Z,12.5
2018-12-23T12:45:10.021Z,10.6
2018-12-23T12:46:22.221Z,14.1
2018-12-23T12:47:34.423Z,9.2
2018-12-23T12:48:46.599Z,11.1
2018-12-23T12:49:58.796Z,11.9
2018-12-23T12:51:11.085Z,9
2018-12-23T12:52:23.251Z,8
2018-12-23T12:53:35.453Z,11.1
2018-12-23T12:54:47.638Z,4.9
2018-12-23T12:55:59.881Z,6.2
2018-12-23T12:57:11.995Z,6.2
2018-12-23T12:58:24.158Z,8.5
2018-12-23T12:59:36.355Z,6.7
2018-12-23T13:00:48.634Z,6.5
2018-12-23T13:02:00.744Z,3.4
2018-12-23T13:03:13.089Z,5.1
2018-12-23T13:04:25.153Z,7.5
2018-12-23T13:05:37.319Z,5.7
2018-12-23T13:06:49.609Z,4.5
2018-12-23T13:08:01.705Z,6.7
2018-12-23T13:09:13.965Z,7
2018-12-23T13:10:26.184Z,9.2
2018-12-23T13:11:38.282Z,7.4
2018-12-23T13:12:50.500Z,7.6
2018-12-23T13:14:02.682Z,3
2018-12-23T13:15:15.060Z,6.9
2018-12-23T13:16:27.129Z,4.8
2018-12-23T13:17:39.249Z,6.3
2018-12-23T13:18:51.449Z,6.1
2018-12-23T13:20:03.654Z,7
2018-12-23T13:21:16.061Z,7.1
2018-12-23T13:22:28.115Z,5.6
2018-12-23T13:23:40.317Z,5.7
2018-12-23T13:24:52.490Z,2.7
2018-12-23T13:26:04.612Z,5.4
2018-12-23T13:27:16.896Z,6.1
2018-12-23T13:28:28.998Z,6.3
2018-12-23T13:29:41.241Z,6.5
2018-12-23T13:30:53.447Z,8.4
2018-12-23T13:32:05.655Z,7.6
2018-12-23T13:33:17.778Z,7.1
2018-12-23T13:34:30.035Z,3.3
2018-12-23T13:35:42.164Z,6.4
2018-12-23T13:36:54.450Z,8.8
2018-12-23T13:38:06.622Z,4.9
2018-12-23T13:39:18.763Z,4.2
2018-12-23T13:40:30.954Z,7.9
2018-12-23T13:41:43.140Z,4.9
2018-12-23T13:42:56.247Z,3.6
2018-12-23T13:44:07.525Z,7
2018-12-23T13:45:19.789Z,8.7
2018-12-23T13:46:31.976Z,3.6
2018-12-23T13:47:44.093Z,5.9
2018-12-23T13:48:56.385Z,2.6
2018-12-23T13:50:08.480Z,7.3
2018-12-23T13:51:20.776Z,4.1
2018-12-23T13:52:33.017Z,7.5
2018-12-23T13:53:45.159Z,3.5
2018-12-23T13:54:57.274Z,6.5
2018-12-23T13:56:09.538Z,5.8
2018-12-23T13:57:21.718Z,7.4
2018-12-23T13:58:33.921Z,7.2
2018-12-23T13:59:46.036Z,4.2
2018-12-23T14:00:58.312Z,5
2018-12-23T14:02:10.435Z,10.6
2018-12-23T14:03:22.787Z,5.4
2018-12-23T14:04:34.820Z,6.4
2018-12-23T14:05:47.085Z,5
2018-12-23T14:06:59.193Z,5.8
2018-12-23T14:08:11.390Z,5.5
2018-12-23T14:09:23.683Z,2.8
2018-12-23T14:10:35.846Z,6.1
2018-12-23T14:11:48.002Z,7.3
2018-12-23T14:13:00.165Z,9.1
2018-12-23T14:14:12.457Z,9.3
2018-12-23T14:15:24.632Z,3
2018-12-23T14:16:36.829Z,9.7
2018-12-23T14:17:48.944Z,5.3
2018-12-23T14:19:01.176Z,0.9
2018-12-23T14:20:13.417Z,6
2018-12-23T14:21:25.597Z,0.9
2018-12-23T14:22:37.720Z,1.7
2018-12-23T14:23:49.975Z,1.1
2018-12-23T14:25:02.112Z,1.8
2018-12-23T14:26:14.298Z,1.2
2018-12-23T14:27:26.572Z,0.5
2018-12-23T14:28:38.774Z,0.4
2018-12-23T14:29:50.887Z,0.5
2018-12-23T14:31:03.166Z,2.8
2018-12-23T14:32:15.370Z,1.1
2018-12-23T14:33:27.546Z,0.9
2018-12-23T14:34:39.656Z,0.9
2018-12-23T14:35:51.856Z,0.9
2018-12-23T14:37:04.151Z,2.2
2018-12-23T14:38:16.292Z,3.4
2018-12-23T14:39:28.616Z,1.9
2018-12-23T14:40:40.705Z,0.5
2018-12-23T14:41:52.965Z,1.1
2018-12-23T14:43:05.102Z,2
2018-12-23T14:44:17.292Z,1
2018-12-23T14:45:29.406Z,1.1
2018-12-23T14:46:41.589Z,0.9
2018-12-23T14:47:53.793Z,1.3
2018-12-23T14:49:06.063Z,0.3
2018-12-23T14:50:18.271Z,1.1
2018-12-23T14:51:30.530Z,0.5
2018-12-23T14:52:42.645Z,2.3
2018-12-23T14:53:54.838Z,0.5
2018-12-23T14:55:07.037Z,0.6
2018-12-23T14:56:19.236Z,0.3
2018-12-23T14:57:31.442Z,1
2018-12-23T14:58:43.707Z,1
2018-12-23T14:59:55.816Z,1.5
2018-12-23T15:01:07.917Z,3.2
2018-12-23T15:02:20.122Z,0.6
2018-12-23T15:03:32.415Z,1.9
2018-12-23T15:04:44.568Z,0.8
2018-12-23T15:05:56.698Z,0.7
2018-12-23T15:07:08.955Z,0.4
2018-12-23T15:08:21.205Z,0.6
2018-12-23T15:09:33.301Z,0.8
2018-12-23T15:10:45.564Z,2.3
2018-12-23T15:11:57.657Z,0.6
2018-12-23T15:13:09.858Z,5.7
2018-12-23T15:14:22.138Z,0.6
2018-12-23T15:15:34.251Z,0.8
2018-12-23T15:16:46.452Z,1.2
2018-12-23T15:17:58.658Z,0.7
2018-12-23T15:19:10.905Z,0.9
2018-12-23T15:20:23.099Z,0.5
2018-12-23T15:21:35.346Z,0.6
2018-12-23T15:22:47.485Z,3.1
2018-12-23T15:23:59.673Z,0.5
2018-12-23T15:25:11.869Z,1.4
2018-12-23T15:26:24.070Z,0.6
2018-12-23T15:27:36.271Z,0.7
2018-12-23T15:28:48.481Z,0.5
2018-12-23T15:30:00.567Z,2.1
2018-12-23T15:31:12.761Z,0.7
2018-12-23T15:32:25.035Z,0.5
2018-12-23T15:33:37.237Z,1.4
2018-12-23T15:34:49.434Z,0.9
2018-12-23T15:36:01.619Z,3.6
2018-12-23T15:37:13.739Z,1.5
2018-12-23T15:38:25.952Z,0.6
2018-12-23T15:39:38.123Z,0.6
2018-12-23T15:40:50.417Z,0.5
2018-12-23T15:42:02.524Z,0.9
2018-12-23T15:43:14.730Z,2.4
2018-12-23T15:44:26.964Z,5.8
2018-12-23T15:45:39.097Z,0.9
2018-12-23T15:46:51.376Z,0.6
2018-12-23T15:48:03.481Z,1.3
2018-12-23T15:49:15.677Z,0.9
2018-12-23T15:50:27.873Z,0.6
2018-12-23T15:51:40.155Z,0.5
2018-12-23T15:52:52.323Z,2.9
2018-12-23T15:54:04.456Z,1.9
2018-12-23T15:55:16.788Z,0.9
2018-12-23T15:56:28.882Z,0.8
2018-12-23T15:57:41.136Z,0.5
2018-12-23T15:58:53.295Z,0.5
2018-12-23T16:00:05.487Z,1.5
2018-12-23T16:01:17.686Z,1.3
2018-12-23T16:02:29.912Z,0.5
2018-12-23T16:03:42.169Z,0.7
2018-12-23T16:04:54.325Z,0.3
2018-12-23T16:06:06.466Z,0.6
2018-12-23T16:07:18.655Z,0.9
2018-12-23T16:08:30.866Z,1.5
2018-12-23T16:09:42.964Z,0.5
2018-12-23T16:10:55.164Z,2.6
2018-12-23T16:12:07.450Z,0.4
2018-12-23T16:13:19.554Z,0.8
2018-12-23T16:14:31.737Z,0.5
2018-12-23T16:15:44.003Z,0.6
2018-12-23T16:16:56.133Z,1.1
2018-12-23T16:18:08.322Z,3.3
2018-12-23T16:19:20.517Z,0.9